Time;durP1;ratioP1;P1;durP2;ratioP2;P2;SDS_P1;SDS_P2;PMS_P1;PMS_P2;Temp;Humidity;BMP_temperature;BMP_pressure;BME280_temperature;BME280_humidity;BME280_pressure;Samples;Min_cycle;Max_cycle;Signal;HPM_P1;HPM_P2
2021/08/24 00:01:58;;;;;;;0.20;0.20;;;12.30;99.90;;;;;;5031931;23;20465;-96
2021/08/24 00:05:40;;;;;;;0.20;0.20;;;12.20;99.90;;;;;;5391683;22;20434;-96
2021/08/24 00:14:57;;;;;;;0.10;0.10;;;12.00;99.90;;;;;;5034228;23;20471;-96
2021/08/24 00:17:25;;;;;;;0.10;0.10;;;12.00;99.90;;;;;;5128397;22;20444;-96
2021/08/24 00:19:53;;;;;;;0.10;0.10;;;12.00;99.90;;;;;;5009551;28;20432;-96
2021/08/24 00:22:20;;;;;;;0.20;0.20;;;12.00;99.90;;;;;;5025668;23;20479;-96
2021/08/24 00:24:50;;;;;;;0.30;0.30;;;11.90;99.90;;;;;;5038807;23;20489;-96
2021/08/24 00:27:36;;;;;;;0.20;0.20;;;11.90;99.90;;;;;;5024839;23;20434;-96
2021/08/24 00:33:35;;;;;;;0.15;0.13;;;11.90;99.90;;;;;;5051619;28;20492;-96
2021/08/24 00:36:03;;;;;;;0.13;0.13;;;11.80;99.90;;;;;;5033041;28;20477;-96
2021/08/24 00:38:34;;;;;;;3.70;1.30;;;11.80;99.90;;;;;;5037691;23;20438;-96
2021/08/24 00:41:03;;;;;;;0.30;0.30;;;11.80;99.90;;;;;;5031945;28;20451;-96
2021/08/24 00:43:39;;;;;;;0.10;0.10;;;11.80;99.90;;;;;;5027335;23;20410;-96
2021/08/24 00:46:40;;;;;;;0.10;0.10;;;11.90;99.90;;;;;;5011709;28;20461;-96
2021/08/24 00:49:29;;;;;;;0.20;0.20;;;11.90;99.90;;;;;;5126818;23;20523;-96
2021/08/24 00:52:22;;;;;;;0.10;0.10;;;11.70;99.90;;;;;;5054453;22;20469;-96
2021/08/24 00:54:50;;;;;;;0.10;0.10;;;11.70;99.90;;;;;;5034331;23;20492;-96
2021/08/24 00:57:22;;;;;;;0.13;0.13;;;11.70;99.90;;;;;;5031887;28;20499;-96
2021/08/24 00:59:52;;;;;;;0.10;0.10;;;11.60;99.90;;;;;;5144947;23;20416;-96
2021/08/24 01:02:41;;;;;;;0.10;0.10;;;11.60;99.90;;;;;;5031906;28;20475;-96
2021/08/24 01:05:17;;;;;;;1.00;0.70;;;11.60;99.90;;;;;;5038140;23;20427;-96
2021/08/24 01:08:10;;;;;;;0.10;0.10;;;11.60;99.90;;;;;;5034895;28;20430;-96
2021/08/24 01:11:01;;;;;;;0.10;0.10;;;11.50;99.90;;;;;;5063446;23;20408;-96
2021/08/24 01:14:07;;;;;;;0.10;0.10;;;11.60;99.90;;;;;;5112182;23;20442;-96
2021/08/24 01:17:10;;;;;;;0.30;0.30;;;11.60;99.90;;;;;;5171824;23;20454;-96
2021/08/24 01:19:58;;;;;;;0.10;0.10;;;11.60;99.90;;;;;;4998010;28;20445;-96
2021/08/24 01:23:08;;;;;;;0.10;0.10;;;11.60;99.90;;;;;;5012034;23;20432;-96
2021/08/24 01:28:42;;;;;;;0.10;0.10;;;11.50;99.90;;;;;;5009940;28;20460;-96
2021/08/24 01:32:11;;;;;;;0.10;0.10;;;11.50;99.90;;;;;;5021019;22;20722;-96
2021/08/24 01:34:57;;;;;;;0.20;0.20;;;11.40;99.90;;;;;;5035956;28;20462;-96
2021/08/24 01:38:07;;;;;;;0.10;0.10;;;11.40;99.90;;;;;;5038346;28;20431;-96
2021/08/24 01:54:34;;;;;;;0.10;0.10;;;11.50;99.90;;;;;;5007963;23;20551;-96
2021/08/24 02:00:13;;;;;;;0.10;0.10;;;11.50;99.90;;;;;;5059034;22;20466;-96
2021/08/24 02:03:09;;;;;;;0.10;0.10;;;11.50;99.90;;;;;;5032758;23;20445;-96
2021/08/24 02:05:49;;;;;;;0.10;0.10;;;11.40;99.90;;;;;;5042946;23;20906;-96
2021/08/24 02:08:29;;;;;;;0.20;0.20;;;11.50;99.90;;;;;;5048726;23;20418;-96
2021/08/24 02:14:17;;;;;;;0.10;0.10;;;11.40;99.90;;;;;;843232;22;20610;-96
2021/08/24 02:20:25;;;;;;;0.10;0.10;;;11.50;99.90;;;;;;5013476;28;20438;-96
2021/08/24 02:56:18;;;;;;;;;;;;;;;;;;;;;
2021/08/24 02:59:19;;;;;;;0.13;0.13;;;11.40;99.90;;;;;;5166231;23;20441;-96
2021/08/24 03:11:04;;;;;;;0.20;0.20;;;11.30;99.90;;;;;;5284515;22;20428;-96
2021/08/24 03:13:48;;;;;;;0.10;0.10;;;11.30;99.90;;;;;;5037326;23;20431;-96
2021/08/24 03:16:55;;;;;;;0.10;0.10;;;11.30;99.90;;;;;;5066479;23;20484;-96
2021/08/24 03:19:27;;;;;;;0.10;0.10;;;11.30;99.90;;;;;;5028378;28;20427;-95
2021/08/24 03:22:15;;;;;;;0.20;0.20;;;11.30;99.90;;;;;;5009816;28;20542;-96
2021/08/24 03:24:44;;;;;;;0.30;0.30;;;11.30;99.90;;;;;;5008569;28;20504;-95
2021/08/24 03:27:11;;;;;;;0.10;0.10;;;11.30;99.90;;;;;;5030550;28;20492;-94
2021/08/24 03:29:39;;;;;;;0.10;0.10;;;11.30;99.90;;;;;;5024007;28;20420;-96
2021/08/24 03:32:15;;;;;;;0.15;0.15;;;11.20;99.90;;;;;;5032631;28;20418;-96
2021/08/24 03:35:08;;;;;;;0.10;0.10;;;11.40;99.90;;;;;;5029203;28;20419;-96
2021/08/24 03:37:42;;;;;;;0.10;0.10;;;11.30;99.90;;;;;;5062274;23;20425;-96
2021/08/24 03:40:30;;;;;;;0.10;0.10;;;11.30;99.90;;;;;;4996946;28;20427;-96
2021/08/24 03:43:13;;;;;;;0.15;0.15;;;11.40;99.90;;;;;;4997400;28;20445;-95
2021/08/24 03:46:06;;;;;;;0.10;0.10;;;11.40;99.90;;;;;;4988642;28;20405;-96
2021/08/24 03:48:33;;;;;;;0.10;0.10;;;11.30;99.90;;;;;;4980954;28;20945;-96
2021/08/24 03:51:17;;;;;;;0.40;0.30;;;11.30;99.90;;;;;;4984035;28;20457;-95
2021/08/24 03:54:01;;;;;;;0.10;0.10;;;11.30;99.90;;;;;;5003743;28;20486;-96
2021/08/24 03:56:29;;;;;;;0.10;0.10;;;11.30;99.90;;;;;;4993470;28;20554;-96
2021/08/24 03:58:58;;;;;;;0.10;0.10;;;11.30;99.90;;;;;;4989685;28;20426;-96
2021/08/24 04:01:32;;;;;;;0.90;0.70;;;11.30;99.90;;;;;;4988567;28;20425;-96
2021/08/24 04:04:10;;;;;;;0.10;0.10;;;11.30;99.90;;;;;;4987277;28;20461;-95
2021/08/24 04:10:33;;;;;;;0.10;0.10;;;11.30;99.90;;;;;;4926541;29;20436;-96
2021/08/24 04:13:34;;;;;;;2.50;0.40;;;11.30;99.90;;;;;;4912678;29;20430;-96
2021/08/24 04:16:42;;;;;;;0.10;0.10;;;11.20;99.90;;;;;;4912317;29;20436;-96
2021/08/24 04:19:36;;;;;;;0.20;0.20;;;11.20;99.90;;;;;;4912549;29;20437;-96
2021/08/24 04:23:00;;;;;;;0.10;0.10;;;11.30;99.90;;;;;;4941393;29;20439;-95
2021/08/24 04:25:34;;;;;;;0.20;0.20;;;11.20;99.90;;;;;;4942494;29;20506;-96
2021/08/24 04:28:41;;;;;;;0.10;0.10;;;11.30;99.90;;;;;;4939049;29;20439;-96
2021/08/24 04:31:16;;;;;;;0.20;0.20;;;11.30;99.90;;;;;;4942444;29;21090;-96
2021/08/24 04:33:57;;;;;;;0.10;0.10;;;11.30;99.90;;;;;;4927448;29;20522;-95
2021/08/24 04:36:31;;;;;;;0.10;0.10;;;11.30;99.90;;;;;;4926361;29;20427;-96
2021/08/24 04:39:49;;;;;;;0.10;0.10;;;11.30;99.90;;;;;;4928128;29;20431;-96
2021/08/24 04:42:51;;;;;;;0.40;0.40;;;11.30;99.90;;;;;;4907556;29;20436;-96
2021/08/24 04:46:27;;;;;;;0.10;0.10;;;11.30;99.90;;;;;;4902368;29;20428;-96
2021/08/24 04:49:25;;;;;;;0.10;0.10;;;11.20;99.90;;;;;;4835111;29;20945;-96
2021/08/24 04:52:22;;;;;;;0.10;0.10;;;11.30;99.90;;;;;;4835599;29;20457;-96
2021/08/24 04:55:24;;;;;;;;;;;;;;;;;;;;;
2021/08/24 05:02:04;;;;;;;1.50;0.80;;;11.30;99.90;;;;;;4841087;29;20439;-96
2021/08/24 05:05:42;;;;;;;0.10;0.10;;;11.40;99.90;;;;;;4849620;29;20424;-96
2021/08/24 05:13:00;;;;;;;;;;;;;;;;;;;;;
2021/08/24 05:19:08;;;;;;;0.10;0.10;;;11.40;99.90;;;;;;4926167;29;20469;-96
2021/08/24 05:25:26;;;;;;;0.20;0.20;;;11.20;99.90;;;;;;5082861;23;20818;-95
2021/08/24 05:28:22;;;;;;;0.10;0.10;;;11.20;99.90;;;;;;5044729;28;20941;-96
2021/08/24 05:31:07;;;;;;;0.10;0.10;;;11.20;99.90;;;;;;4969494;28;20409;-96
2021/08/24 05:33:34;;;;;;;0.20;0.20;;;11.30;99.90;;;;;;4952094;28;20413;-94
2021/08/24 05:39:50;;;;;;;0.10;0.10;;;11.30;99.90;;;;;;4950972;29;20447;-95
2021/08/24 05:44:53;;;;;;;0.40;0.40;;;11.20;99.90;;;;;;5058759;22;20517;-95
2021/08/24 05:47:20;;;;;;;0.17;0.17;;;11.30;99.90;;;;;;5037255;23;20476;-96
2021/08/24 05:49:48;;;;;;;0.10;0.10;;;11.30;99.90;;;;;;5036586;23;20421;-95
2021/08/24 05:52:15;;;;;;;0.10;0.10;;;11.20;99.90;;;;;;5037635;23;20488;-95
2021/08/24 05:54:44;;;;;;;0.10;0.10;;;11.20;99.90;;;;;;5031904;28;20428;-94
2021/08/24 06:00:11;;;;;;;0.10;0.10;;;11.20;99.90;;;;;;5007787;28;20414;-94
2021/08/24 06:02:58;;;;;;;0.17;0.17;;;11.30;99.90;;;;;;5026200;23;20437;-94
2021/08/24 06:05:46;;;;;;;0.17;0.17;;;11.20;99.90;;;;;;5031418;23;20527;-94
2021/08/24 06:08:12;;;;;;;0.50;0.30;;;11.40;99.90;;;;;;5030384;28;20476;-95
2021/08/24 06:10:40;;;;;;;0.10;0.10;;;11.40;99.90;;;;;;5031835;28;20424;-94
2021/08/24 06:13:17;;;;;;;0.20;0.20;;;11.40;99.90;;;;;;5032254;28;20522;-94
2021/08/24 06:15:44;;;;;;;0.10;0.10;;;11.40;99.90;;;;;;5032944;28;20476;-96
2021/08/24 06:18:11;;;;;;;0.10;0.10;;;11.30;99.90;;;;;;5029543;28;20562;-95
2021/08/24 06:20:40;;;;;;;0.20;0.20;;;11.30;99.90;;;;;;5029070;28;20446;-95
2021/08/24 06:23:20;;;;;;;0.13;0.13;;;11.30;99.90;;;;;;5024181;23;20946;-94
2021/08/24 06:25:47;;;;;;;0.88;0.47;;;11.40;99.90;;;;;;5032640;28;20403;-96
2021/08/24 06:28:14;;;;;;;0.10;0.10;;;11.40;99.90;;;;;;5054863;23;20430;-95
2021/08/24 06:33:39;;;;;;;0.60;0.50;;;11.50;99.90;;;;;;5145970;27;20374;-95
2021/08/24 06:36:19;;;;;;;0.10;0.10;;;11.50;99.90;;;;;;5130604;28;20419;-96
2021/08/24 06:42:53;;;;;;;0.20;0.20;;;11.60;99.90;;;;;;5136362;22;20509;-95
2021/08/24 06:45:24;;;;;;;0.20;0.20;;;11.70;99.90;;;;;;5083417;28;20407;-95
2021/08/24 06:47:54;;;;;;;0.10;0.10;;;11.80;99.90;;;;;;5078650;28;20532;-95
2021/08/24 06:50:25;;;;;;;0.40;0.35;;;11.70;99.90;;;;;;5081505;28;20510;-95
2021/08/24 06:52:52;;;;;;;0.10;0.10;;;11.70;99.90;;;;;;5082015;28;20435;-95
2021/08/24 06:55:20;;;;;;;0.30;0.30;;;11.80;99.90;;;;;;5081011;28;20411;-96
2021/08/24 06:57:48;;;;;;;0.20;0.20;;;11.90;99.90;;;;;;5079349;28;20449;-95
2021/08/24 07:00:23;;;;;;;0.20;0.20;;;11.90;99.90;;;;;;5080973;28;20450;-94
2021/08/24 07:02:52;;;;;;;0.10;0.10;;;11.90;99.90;;;;;;5080989;28;20403;-95
2021/08/24 07:05:24;;;;;;;0.20;0.20;;;12.00;99.90;;;;;;5080695;28;20597;-94
2021/08/24 07:07:51;;;;;;;0.10;0.10;;;12.00;99.90;;;;;;5077963;28;20953;-95
2021/08/24 07:10:24;;;;;;;0.20;0.20;;;12.00;99.90;;;;;;5082558;27;20391;-96
2021/08/24 07:12:52;;;;;;;0.15;0.15;;;12.00;99.90;;;;;;5082735;27;20461;-94
2021/08/24 07:15:21;;;;;;;0.40;0.40;;;12.00;99.90;;;;;;5083674;28;20425;-94
2021/08/24 07:17:54;;;;;;;0.10;0.10;;;12.10;99.90;;;;;;5092511;27;20416;-95
2021/08/24 07:20:27;;;;;;;0.20;0.20;;;12.20;99.90;;;;;;5085379;28;20387;-96
2021/08/24 07:22:57;;;;;;;0.20;0.20;;;12.10;99.90;;;;;;5083397;28;20422;-95
2021/08/24 07:25:27;;;;;;;0.20;0.20;;;12.10;99.90;;;;;;5082318;27;20510;-96
2021/08/24 07:27:55;;;;;;;0.50;0.50;;;12.00;99.90;;;;;;5079767;28;20426;-94
2021/08/24 07:30:25;;;;;;;1.50;1.00;;;12.00;99.90;;;;;;5081580;28;20412;-94
2021/08/24 07:32:57;;;;;;;0.70;0.35;;;12.10;99.90;;;;;;5078214;28;20439;-95
2021/08/24 07:35:24;;;;;;;0.28;0.28;;;12.20;99.90;;;;;;5079225;28;20424;-95
2021/08/24 07:37:51;;;;;;;0.30;0.30;;;12.30;99.90;;;;;;5080678;28;20754;-95
2021/08/24 07:40:18;;;;;;;0.10;0.10;;;12.30;99.90;;;;;;5077321;28;20425;-96
2021/08/24 07:42:46;;;;;;;0.20;0.20;;;12.40;99.90;;;;;;5091755;28;20418;-95
2021/08/24 07:45:14;;;;;;;0.20;0.20;;;12.40;99.90;;;;;;5065504;28;20827;-95
2021/08/24 07:47:46;;;;;;;0.20;0.20;;;12.40;99.90;;;;;;5080965;28;20469;-95
2021/08/24 07:50:14;;;;;;;0.10;0.10;;;12.50;99.90;;;;;;5066458;28;20407;-95
2021/08/24 07:52:41;;;;;;;0.20;0.20;;;12.50;99.90;;;;;;5062471;28;20439;-95
2021/08/24 07:55:09;;;;;;;0.10;0.10;;;12.60;99.90;;;;;;5068976;28;20415;-95
2021/08/24 07:57:37;;;;;;;0.67;0.37;;;12.70;99.90;;;;;;5064053;28;20415;-96
2021/08/24 08:00:06;;;;;;;0.10;0.10;;;12.80;99.90;;;;;;5065729;28;20427;-96
2021/08/24 08:02:33;;;;;;;0.10;0.10;;;12.90;99.90;;;;;;5066298;28;20427;-96
2021/08/24 08:05:17;;;;;;;0.10;0.10;;;13.10;99.90;;;;;;5068261;28;20407;-96
2021/08/24 08:07:59;;;;;;;0.20;0.20;;;13.20;99.90;;;;;;5069177;28;20488;-96
2021/08/24 08:10:50;;;;;;;5.60;3.15;;;13.30;99.90;;;;;;5067663;28;20396;-96
2021/08/24 08:14:04;;;;;;;0.95;0.90;;;13.40;99.90;;;;;;5074789;28;20462;-95
2021/08/24 08:25:11;;;;;;;0.20;0.20;;;14.10;99.90;;;;;;5236809;23;20441;-95
2021/08/24 08:27:38;;;;;;;0.10;0.10;;;14.00;99.90;;;;;;5162877;23;20425;-96
2021/08/24 08:34:18;;;;;;;0.10;0.10;;;14.30;99.90;;;;;;5034161;23;20452;-96
2021/08/24 08:37:09;;;;;;;0.10;0.10;;;14.40;99.90;;;;;;5008975;28;20440;-96
2021/08/24 08:40:03;;;;;;;0.10;0.10;;;14.40;99.90;;;;;;5022600;28;20391;-96
2021/08/24 08:50:31;;;;;;;0.10;0.10;;;14.00;99.90;;;;;;4903761;29;20527;-96
2021/08/24 08:53:11;;;;;;;0.10;0.10;;;13.60;99.90;;;;;;4885847;29;20435;-96
2021/08/24 08:55:50;;;;;;;0.10;0.10;;;13.50;99.90;;;;;;4884257;29;20431;-96
2021/08/24 08:58:57;;;;;;;0.10;0.10;;;13.40;99.90;;;;;;4904597;29;20437;-96
2021/08/24 09:01:57;;;;;;;0.20;0.20;;;13.50;99.90;;;;;;4918800;29;20443;-96
2021/08/24 09:04:37;;;;;;;0.10;0.10;;;13.60;99.90;;;;;;4893099;29;20435;-96
2021/08/24 09:07:13;;;;;;;0.40;0.40;;;13.70;99.90;;;;;;4903509;29;20487;-94
2021/08/24 09:09:41;;;;;;;0.30;0.30;;;13.70;99.90;;;;;;4900874;29;20510;-94
2021/08/24 09:12:10;;;;;;;0.20;0.20;;;13.60;99.90;;;;;;4899772;29;20555;-95
2021/08/24 09:14:47;;;;;;;0.10;0.10;;;13.60;99.90;;;;;;4884489;29;20430;-95
2021/08/24 09:17:27;;;;;;;0.10;0.10;;;13.50;99.90;;;;;;4902435;29;20830;-95
2021/08/24 09:20:09;;;;;;;0.20;0.20;;;13.50;99.90;;;;;;4899494;29;20542;-94
2021/08/24 09:22:38;;;;;;;0.20;0.20;;;13.70;99.90;;;;;;4924024;28;20496;-93
2021/08/24 09:25:13;;;;;;;0.20;0.20;;;13.80;99.90;;;;;;5015648;28;20427;-96
2021/08/24 09:27:58;;;;;;;0.10;0.10;;;14.00;99.90;;;;;;5017943;28;20421;-96
2021/08/24 09:30:41;;;;;;;;;;;;;;;;;;;;;
2021/08/24 09:33:31;;;;;;;0.10;0.10;;;14.30;99.90;;;;;;5018466;28;20471;-96
2021/08/24 09:36:01;;;;;;;0.10;0.10;;;14.20;99.90;;;;;;5016662;28;20986;-96
2021/08/24 09:38:31;;;;;;;0.10;0.10;;;14.30;99.90;;;;;;5015645;28;20488;-96
2021/08/24 09:41:17;;;;;;;0.10;0.10;;;14.30;99.90;;;;;;5016036;28;20431;-96
2021/08/24 09:43:47;;;;;;;0.10;0.10;;;14.30;99.90;;;;;;5015696;28;20428;-95
2021/08/24 09:46:16;;;;;;;0.10;0.10;;;14.40;99.90;;;;;;5016115;28;20413;-95
2021/08/24 09:49:04;;;;;;;0.10;0.10;;;14.40;99.90;;;;;;5014771;28;20416;-96
2021/08/24 09:51:44;;;;;;;0.10;0.10;;;14.40;99.90;;;;;;5016350;28;20506;-96
2021/08/24 09:54:29;;;;;;;0.10;0.10;;;14.50;99.90;;;;;;5015491;28;20435;-96
2021/08/24 09:57:03;;;;;;;0.10;0.10;;;14.50;99.90;;;;;;5017801;28;20437;-96
2021/08/24 09:59:39;;;;;;;0.10;0.10;;;14.50;99.90;;;;;;5015602;28;20508;-95
2021/08/24 10:02:36;;;;;;;0.20;0.20;;;14.50;99.90;;;;;;5016016;28;20437;-96
2021/08/24 10:05:05;;;;;;;0.10;0.10;;;14.50;99.90;;;;;;5016181;28;20428;-96
2021/08/24 10:07:44;;;;;;;0.10;0.10;;;14.50;99.90;;;;;;5015549;28;20455;-96
2021/08/24 10:10:32;;;;;;;0.20;0.20;;;14.50;99.90;;;;;;5019083;28;20420;-96
2021/08/24 10:13:21;;;;;;;0.30;0.20;;;14.40;99.90;;;;;;5020789;28;20471;-96
2021/08/24 10:15:49;;;;;;;0.10;0.10;;;14.30;99.90;;;;;;5014844;28;20432;-95
2021/08/24 10:18:34;;;;;;;0.10;0.10;;;14.30;99.90;;;;;;5022579;28;20451;-96
2021/08/24 10:25:52;;;;;;;0.10;0.10;;;13.90;99.90;;;;;;4913316;29;20462;-96
2021/08/24 10:28:33;;;;;;;0.10;0.10;;;13.80;99.90;;;;;;4897182;29;20439;-96
2021/08/24 10:31:54;;;;;;;0.10;0.10;;;13.80;99.90;;;;;;4909882;29;20526;-96
2021/08/24 10:38:17;;;;;;;0.10;0.10;;;13.60;99.90;;;;;;4983006;28;20419;-96
2021/08/24 10:40:50;;;;;;;0.10;0.10;;;13.40;99.90;;;;;;4970046;28;20451;-96
2021/08/24 10:43:36;;;;;;;0.10;0.10;;;13.40;99.90;;;;;;4978129;28;20408;-96
2021/08/24 10:47:36;;;;;;;0.10;0.10;;;13.20;99.90;;;;;;4954929;28;20431;-96
2021/08/24 10:51:47;;;;;;;;;;;;;;;;;;;;;
2021/08/24 11:17:24;;;;;;;0.10;0.10;;;13.80;99.90;;;;;;4977112;28;20424;-95
2021/08/24 11:20:22;;;;;;;0.10;0.10;;;14.00;99.90;;;;;;4988705;28;20421;-96
2021/08/24 11:23:29;;;;;;;0.10;0.10;;;14.20;99.90;;;;;;4990622;28;20415;-96
2021/08/24 11:26:30;;;;;;;0.20;0.20;;;14.50;99.90;;;;;;4990594;28;20436;-96
2021/08/24 11:29:09;;;;;;;0.10;0.10;;;14.50;99.90;;;;;;4985350;28;20491;-96
2021/08/24 11:32:14;;;;;;;0.10;0.10;;;14.60;99.90;;;;;;4984291;28;20487;-96
2021/08/24 11:35:07;;;;;;;0.10;0.10;;;14.50;99.90;;;;;;4977356;28;20506;-96
2021/08/24 11:37:52;;;;;;;0.10;0.10;;;14.50;99.90;;;;;;4981953;28;20420;-96
2021/08/24 11:40:41;;;;;;;0.10;0.10;;;14.40;99.90;;;;;;4981501;28;20835;-96
2021/08/24 11:43:22;;;;;;;0.10;0.10;;;14.30;99.90;;;;;;4963829;28;21045;-96
2021/08/24 11:45:57;;;;;;;0.10;0.10;;;14.30;99.90;;;;;;4963729;28;20428;-96
2021/08/24 11:48:34;;;;;;;0.10;0.10;;;14.50;99.90;;;;;;4983302;28;20431;-96
2021/08/24 11:51:15;;;;;;;0.10;0.10;;;14.50;99.90;;;;;;4937185;29;20436;-96
2021/08/24 11:54:32;;;;;;;0.10;0.10;;;14.50;99.90;;;;;;4964956;28;20443;-96
2021/08/24 11:59:51;;;;;;;0.10;0.10;;;14.70;99.90;;;;;;5063097;28;20425;-96
